createdAt,value
2017-08-22T00:00:37.965Z,98897.44
2017-08-22T00:03:06.299Z,98895.52
2017-08-22T00:05:34.657Z,98890.50
2017-08-22T00:08:02.990Z,98889.30
2017-08-22T00:10:31.353Z,98898.34
2017-08-22T00:12:59.715Z,98898.48
2017-08-22T00:15:28.053Z,98901.09
2017-08-22T00:17:56.366Z,98907.80
2017-08-22T00:20:24.720Z,98905.45
2017-08-22T00:22:53.094Z,98899.30
2017-08-22T00:25:21.418Z,98903.76
2017-08-22T00:27:50.741Z,98909.52
2017-08-22T00:30:19.089Z,98910.75
2017-08-22T00:32:47.446Z,98906.23
2017-08-22T00:35:15.789Z,98915.28
2017-08-22T00:37:44.528Z,98919.27
2017-08-22T00:40:12.846Z,98910.87
2017-08-22T00:42:41.152Z,98911.42
2017-08-22T00:45:09.646Z,98909.05
2017-08-22T00:47:37.995Z,98910.11
2017-08-22T00:50:06.344Z,98907.34
2017-08-22T00:52:34.707Z,98906.84
2017-08-22T00:55:04.121Z,98904.77
2017-08-22T00:57:32.459Z,98908.09
2017-08-22T01:00:00.787Z,98910.34
2017-08-22T01:02:29.129Z,98912.13
2017-08-22T01:04:57.539Z,98906.77
2017-08-22T01:07:26.689Z,98913.41
2017-08-22T01:09:55.041Z,98912.05
2017-08-22T01:12:23.694Z,98915.82
2017-08-22T01:14:52.037Z,98916.33
2017-08-22T01:17:20.387Z,98914.75
2017-08-22T01:19:48.738Z,98913.82
2017-08-22T01:22:17.065Z,98911.00
2017-08-22T01:24:45.398Z,98913.62
2017-08-22T01:27:13.738Z,98908.22
2017-08-22T01:29:42.093Z,98903.66
2017-08-22T01:32:10.629Z,98903.52
2017-08-22T01:34:38.983Z,98898.21
2017-08-22T01:37:07.335Z,98902.08
2017-08-22T01:39:35.808Z,98899.05
2017-08-22T01:42:04.177Z,98899.40
2017-08-22T01:44:32.526Z,98900.96
2017-08-22T01:47:01.216Z,98903.78
2017-08-22T01:49:29.578Z,98900.83
2017-08-22T01:52:03.805Z,98898.66
2017-08-22T01:54:32.122Z,98898.88
2017-08-22T01:57:01.005Z,98900.34
2017-08-22T01:59:29.353Z,98896.89
2017-08-22T02:01:57.769Z,98898.20
2017-08-22T02:04:26.243Z,98903.06
2017-08-22T02:06:54.579Z,98905.53
2017-08-22T02:09:22.931Z,98902.77
2017-08-22T02:11:51.254Z,98898.69
2017-08-22T02:14:19.617Z,98896.13
2017-08-22T02:16:47.963Z,98890.49
2017-08-22T02:19:16.300Z,98889.85
2017-08-22T02:21:44.913Z,98892.84
2017-08-22T02:24:13.237Z,98893.06
2017-08-22T02:26:42.057Z,98898.48
2017-08-22T02:29:10.424Z,98900.98
2017-08-22T02:31:38.760Z,98898.84
2017-08-22T02:34:07.387Z,98892.85
2017-08-22T02:36:35.724Z,98894.33
2017-08-22T02:39:04.062Z,98890.05
2017-08-22T02:41:32.402Z,98888.55
2017-08-22T02:44:00.758Z,98888.34
2017-08-22T02:46:29.104Z,98894.72
2017-08-22T02:48:57.503Z,98884.34
2017-08-22T02:51:25.843Z,98888.95
2017-08-22T02:53:54.190Z,98889.08
2017-08-22T02:56:22.632Z,98893.20
2017-08-22T02:58:50.981Z,98889.84
2017-08-22T03:01:19.322Z,98894.02
2017-08-22T03:03:47.677Z,98886.53
2017-08-22T03:06:16.007Z,98888.53
2017-08-22T03:08:44.343Z,98884.39
2017-08-22T03:11:12.699Z,98889.36
2017-08-22T03:13:41.017Z,98887.66
2017-08-22T03:16:10.273Z,98890.09
2017-08-22T03:18:38.651Z,98889.71
2017-08-22T03:21:07.018Z,98886.53
2017-08-22T03:23:35.331Z,98894.11
2017-08-22T03:26:03.958Z,98896.31
2017-08-22T03:28:32.272Z,98892.88
2017-08-22T03:31:00.619Z,98889.50
2017-08-22T03:33:28.977Z,98885.66
2017-08-22T03:35:57.685Z,98883.22
2017-08-22T03:38:26.055Z,98885.77
2017-08-22T03:40:54.388Z,98886.26
2017-08-22T03:43:22.736Z,98883.58
2017-08-22T03:45:51.153Z,98885.38
2017-08-22T03:48:19.546Z,98886.88
2017-08-22T03:50:47.896Z,98886.55
2017-08-22T03:53:16.253Z,98889.65
2017-08-22T03:55:44.611Z,98893.75
2017-08-22T03:58:12.964Z,98892.04
2017-08-22T04:00:41.438Z,98887.03
2017-08-22T04:03:09.759Z,98889.42
2017-08-22T04:05:38.202Z,98893.34
2017-08-22T04:08:06.571Z,98894.73
2017-08-22T04:10:35.839Z,98895.59
2017-08-22T04:13:04.182Z,98901.31
2017-08-22T04:15:32.506Z,98901.05
2017-08-22T04:18:00.862Z,98897.20
2017-08-22T04:20:29.182Z,98896.45
2017-08-22T04:22:57.527Z,98898.02
2017-08-22T04:25:25.879Z,98901.20
2017-08-22T04:27:54.214Z,98904.30
2017-08-22T04:30:22.551Z,98908.97
2017-08-22T04:32:50.863Z,98906.17
2017-08-22T04:35:19.201Z,98912.00
2017-08-22T04:37:47.519Z,98907.55
2017-08-22T04:40:16.098Z,98904.70
2017-08-22T04:42:44.444Z,98905.83
2017-08-22T04:45:12.879Z,98907.27
2017-08-22T04:47:41.229Z,98903.52
2017-08-22T04:50:09.558Z,98901.28
2017-08-22T04:52:37.896Z,98898.99
2017-08-22T04:55:06.204Z,98898.17
2017-08-22T04:57:34.552Z,98896.19
2017-08-22T05:00:02.885Z,98895.77
2017-08-22T05:02:31.249Z,98895.20
2017-08-22T05:04:59.583Z,98892.39
2017-08-22T05:07:27.916Z,98891.41
2017-08-22T05:09:56.271Z,98891.25
2017-08-22T05:12:24.588Z,98880.77
2017-08-22T05:14:52.925Z,98883.70
2017-08-22T05:17:21.269Z,98885.55
2017-08-22T05:19:49.625Z,98882.29
2017-08-22T05:22:17.971Z,98887.69
2017-08-22T05:24:46.317Z,98885.11
2017-08-22T05:27:14.784Z,98884.89
2017-08-22T05:29:43.103Z,98890.25
2017-08-22T05:32:11.435Z,98882.52
2017-08-22T05:34:39.769Z,98879.39
2017-08-22T05:37:08.551Z,98876.72
2017-08-22T05:39:37.656Z,98874.47
2017-08-22T05:42:05.986Z,98868.57
2017-08-22T05:44:34.318Z,98868.97
2017-08-22T05:47:02.640Z,98871.14
2017-08-22T05:49:31.017Z,98873.37
2017-08-22T05:51:59.490Z,98876.52
2017-08-22T05:54:27.812Z,98874.56
2017-08-22T05:56:56.234Z,98875.88
2017-08-22T05:59:24.653Z,98874.47
2017-08-22T06:01:53.005Z,98866.33
2017-08-22T06:04:21.316Z,98868.23
2017-08-22T06:06:50.140Z,98867.95
2017-08-22T06:09:18.526Z,98857.77
2017-08-22T06:11:46.875Z,98864.16
2017-08-22T06:14:15.227Z,98865.50
2017-08-22T06:16:43.544Z,98862.25
2017-08-22T06:19:12.344Z,98872.23
2017-08-22T06:21:40.680Z,98871.09
2017-08-22T06:24:08.994Z,98871.53
2017-08-22T06:26:37.333Z,98868.27
2017-08-22T06:29:05.749Z,98863.00
2017-08-22T06:31:34.098Z,98866.28
2017-08-22T06:34:02.535Z,98864.13
2017-08-22T06:36:30.959Z,98865.52
2017-08-22T06:38:59.328Z,98862.10
2017-08-22T06:41:28.115Z,98868.85
2017-08-22T06:43:56.440Z,98865.49
2017-08-22T06:46:24.798Z,98869.84
2017-08-22T06:48:53.142Z,98858.79
2017-08-22T06:51:21.508Z,98855.97
2017-08-22T06:53:50.123Z,98849.73
2017-08-22T06:56:18.457Z,98842.06
2017-08-22T06:58:47.660Z,98840.00
2017-08-22T07:01:17.933Z,98842.30
2017-08-22T07:03:46.504Z,98845.11
2017-08-22T07:06:14.899Z,98841.01
2017-08-22T07:08:43.492Z,98838.41
2017-08-22T07:11:11.963Z,98831.20
2017-08-22T07:13:40.473Z,98830.37
2017-08-22T07:16:09.069Z,98831.46
2017-08-22T07:18:43.994Z,98828.69
2017-08-22T07:21:12.403Z,98826.42
2017-08-22T07:23:40.795Z,98824.46
2017-08-22T07:26:09.210Z,98829.11
2017-08-22T07:28:37.653Z,98827.52
2017-08-22T07:31:05.994Z,98827.19
2017-08-22T07:33:34.611Z,98824.55
2017-08-22T07:36:03.076Z,98821.70
2017-08-22T07:38:31.408Z,98827.64
2017-08-22T07:40:59.891Z,98833.50
2017-08-22T07:43:28.258Z,98829.88
2017-08-22T07:45:56.594Z,98821.44
2017-08-22T07:48:24.954Z,98826.27
2017-08-22T07:50:53.776Z,98820.53
2017-08-22T07:53:22.106Z,98832.73
2017-08-22T07:55:50.541Z,98822.34
2017-08-22T07:58:18.905Z,98823.11
2017-08-22T08:00:47.256Z,98818.17
2017-08-22T08:03:15.618Z,98823.97
2017-08-22T08:05:43.946Z,98821.77
2017-08-22T08:08:12.305Z,98821.82
2017-08-22T08:10:40.790Z,98820.42
2017-08-22T08:13:09.452Z,98820.47
2017-08-22T08:15:37.813Z,98820.39
2017-08-22T08:18:06.161Z,98817.63
2017-08-22T08:20:34.605Z,98813.39
2017-08-22T08:23:02.940Z,98809.75
2017-08-22T08:25:31.284Z,98811.47
2017-08-22T08:27:59.628Z,98804.45
2017-08-22T08:30:27.990Z,98801.80
2017-08-22T08:32:56.314Z,98801.17
2017-08-22T08:35:24.690Z,98797.34
2017-08-22T08:37:53.041Z,98803.20
2017-08-22T08:40:21.745Z,98802.98
2017-08-22T08:42:50.086Z,98799.50
2017-08-22T08:45:18.413Z,98799.07
2017-08-22T08:47:46.798Z,98804.45
2017-08-22T08:50:15.173Z,98800.55
2017-08-22T08:52:43.549Z,98792.49
2017-08-22T08:55:11.885Z,98794.05
2017-08-22T08:57:40.670Z,98799.70
2017-08-22T09:00:09.012Z,98789.55
2017-08-22T09:02:41.123Z,98792.66
2017-08-22T09:05:09.473Z,98795.55
2017-08-22T09:07:37.800Z,98791.61
2017-08-22T09:10:06.145Z,98789.69
2017-08-22T09:12:34.478Z,98784.16
2017-08-22T09:15:02.861Z,98785.77
2017-08-22T09:17:31.195Z,98781.02
2017-08-22T09:19:59.559Z,98781.50
2017-08-22T09:22:27.892Z,98784.31
2017-08-22T09:24:57.616Z,98781.13
2017-08-22T09:27:25.953Z,98782.97
2017-08-22T09:29:54.721Z,98774.13
2017-08-22T09:32:23.839Z,98776.44
2017-08-22T09:34:52.310Z,98771.44
2017-08-22T09:37:20.671Z,98767.64
2017-08-22T09:39:49.000Z,98771.61
2017-08-22T09:42:17.371Z,98770.44
2017-08-22T09:44:45.683Z,98767.20
2017-08-22T09:47:14.396Z,98774.52
2017-08-22T09:49:42.720Z,98778.66
2017-08-22T09:52:11.950Z,98780.05
2017-08-22T09:54:40.376Z,98770.47
2017-08-22T09:57:08.775Z,98772.81
2017-08-22T09:59:37.121Z,98770.30
2017-08-22T10:02:05.483Z,98777.13
2017-08-22T10:05:13.985Z,98772.69
2017-08-22T10:07:42.334Z,98767.30
2017-08-22T10:10:10.692Z,98760.69
2017-08-22T10:12:39.047Z,98755.99
2017-08-22T10:15:07.413Z,98760.53
2017-08-22T10:17:35.763Z,98760.69
2017-08-22T10:20:04.088Z,98753.08
2017-08-22T10:22:32.435Z,98758.98
2017-08-22T10:25:00.776Z,98761.94
2017-08-22T10:27:29.133Z,98761.43
2017-08-22T10:29:57.620Z,98760.36
2017-08-22T10:32:26.046Z,98753.37
2017-08-22T10:34:54.372Z,98744.63
2017-08-22T10:37:23.225Z,98751.77
2017-08-22T10:39:51.579Z,98746.53
2017-08-22T10:42:19.913Z,98751.16
2017-08-22T10:44:48.275Z,98748.86
2017-08-22T10:47:16.593Z,98745.91
2017-08-22T10:49:44.930Z,98741.35
2017-08-22T10:52:13.285Z,98741.06
2017-08-22T10:54:41.635Z,98732.37
2017-08-22T10:57:09.984Z,98728.54
2017-08-22T10:59:38.342Z,98734.91
2017-08-22T11:02:06.671Z,98724.70
2017-08-22T11:04:35.025Z,98723.77
2017-08-22T11:07:03.383Z,98729.43
2017-08-22T11:09:31.695Z,98724.67
2017-08-22T11:12:00.028Z,98722.38
2017-08-22T11:14:28.348Z,98710.86
2017-08-22T11:16:56.697Z,98710.50
2017-08-22T11:19:25.033Z,98715.45
2017-08-22T11:21:53.399Z,98710.30
2017-08-22T11:24:21.727Z,98706.48
2017-08-22T11:26:50.065Z,98698.66
2017-08-22T11:29:18.403Z,98700.18
2017-08-22T11:31:47.033Z,98701.52
2017-08-22T11:34:15.369Z,98703.17
2017-08-22T11:36:43.683Z,98691.05
2017-08-22T11:39:12.040Z,98691.28
2017-08-22T11:41:40.378Z,98688.95
2017-08-22T11:44:08.734Z,98689.80
2017-08-22T11:46:37.071Z,98691.06
2017-08-22T11:49:05.417Z,98685.08
2017-08-22T11:51:33.763Z,98676.72
2017-08-22T11:54:02.942Z,98674.25
2017-08-22T11:56:31.266Z,98669.00
2017-08-22T11:58:59.622Z,98668.30
2017-08-22T12:01:27.975Z,98667.48
2017-08-22T12:03:56.296Z,98661.63
2017-08-22T12:06:24.650Z,98663.03
2017-08-22T12:08:52.990Z,98660.39
2017-08-22T12:11:21.334Z,98663.71
2017-08-22T12:13:49.644Z,98655.45
2017-08-22T12:16:17.974Z,98655.48
2017-08-22T12:18:46.318Z,98657.36
2017-08-22T12:21:14.695Z,98658.55
2017-08-22T12:23:43.055Z,98660.53
2017-08-22T12:26:11.389Z,98660.77
2017-08-22T12:28:39.736Z,98658.66
2017-08-22T12:31:08.081Z,98660.27
2017-08-22T12:33:36.429Z,98651.45
2017-08-22T12:36:04.797Z,98658.86
2017-08-22T12:38:33.407Z,98652.64
2017-08-22T12:41:01.750Z,98651.86
2017-08-22T12:43:30.069Z,98646.89
2017-08-22T12:45:58.422Z,98641.44
2017-08-22T12:48:26.773Z,98647.70
2017-08-22T12:50:55.121Z,98646.37
2017-08-22T12:53:23.439Z,98648.48
2017-08-22T12:55:51.782Z,98643.55
2017-08-22T12:58:20.210Z,98649.52
2017-08-22T13:00:48.680Z,98644.27
2017-08-22T13:03:17.037Z,98638.33
2017-08-22T13:05:45.369Z,98640.41
2017-08-22T13:08:13.774Z,98640.84
2017-08-22T13:10:42.113Z,98635.70
2017-08-22T13:13:10.469Z,98630.69
2017-08-22T13:15:38.806Z,98639.23
2017-08-22T13:18:07.158Z,98639.13
2017-08-22T13:20:35.491Z,98634.92
2017-08-22T13:23:03.891Z,98640.44
2017-08-22T13:25:32.227Z,98634.61
2017-08-22T13:28:00.615Z,98638.52
2017-08-22T13:30:28.980Z,98631.34
2017-08-22T13:32:57.600Z,98639.16
2017-08-22T13:35:25.938Z,98634.69
2017-08-22T13:37:54.553Z,98632.68
2017-08-22T13:40:22.943Z,98631.97
2017-08-22T13:42:51.280Z,98632.06
2017-08-22T13:45:19.618Z,98638.84
2017-08-22T13:47:47.947Z,98632.27
2017-08-22T13:50:16.294Z,98634.28
2017-08-22T13:52:44.695Z,98631.95
2017-08-22T13:55:13.025Z,98621.58
2017-08-22T13:57:41.353Z,98620.08
2017-08-22T14:00:09.956Z,98619.37
2017-08-22T14:02:38.286Z,98619.20
2017-08-22T14:05:06.631Z,98611.42
2017-08-22T14:07:34.986Z,98609.61
2017-08-22T14:10:03.301Z,98611.02
2017-08-22T14:12:31.919Z,98612.69
2017-08-22T14:15:00.270Z,98611.75
2017-08-22T14:17:28.637Z,98605.23
2017-08-22T14:19:57.011Z,98607.36
2017-08-22T14:22:25.614Z,98604.96
2017-08-22T14:24:53.941Z,98597.52
2017-08-22T14:27:22.278Z,98604.00
2017-08-22T14:29:50.626Z,98599.13
2017-08-22T14:32:19.613Z,98596.06
2017-08-22T14:34:47.962Z,98593.79
2017-08-22T14:37:16.294Z,98594.05
2017-08-22T14:39:45.026Z,98601.94
2017-08-22T14:42:13.344Z,98596.59
2017-08-22T14:44:41.690Z,98591.62
2017-08-22T14:47:10.055Z,98587.78
2017-08-22T14:49:38.410Z,98585.98
2017-08-22T14:52:06.756Z,98572.94
2017-08-22T14:54:36.111Z,98573.68
2017-08-22T14:57:04.534Z,98571.61
2017-08-22T14:59:32.893Z,98563.13
2017-08-22T15:02:01.239Z,98562.19
2017-08-22T15:04:29.568Z,98554.13
2017-08-22T15:06:57.910Z,98559.73
2017-08-22T15:09:26.250Z,98554.08
2017-08-22T15:11:54.649Z,98562.47
2017-08-22T15:14:22.977Z,98558.89
2017-08-22T15:16:51.575Z,98561.10
2017-08-22T15:19:19.913Z,98558.98
2017-08-22T15:21:48.297Z,98552.37
2017-08-22T15:24:16.655Z,98548.59
2017-08-22T15:26:44.981Z,98542.83
2017-08-22T15:29:13.336Z,98550.46
2017-08-22T15:31:41.674Z,98551.44
2017-08-22T15:34:10.026Z,98546.28
2017-08-22T15:36:38.345Z,98544.08
2017-08-22T15:39:06.942Z,98544.03
2017-08-22T15:41:35.272Z,98545.20
2017-08-22T15:44:08.332Z,98539.70
2017-08-22T15:46:36.902Z,98536.28
2017-08-22T15:49:05.253Z,98535.19
2017-08-22T15:51:33.630Z,98527.80
2017-08-22T15:54:01.964Z,98531.52
2017-08-22T15:56:31.134Z,98528.55
2017-08-22T15:58:59.489Z,98533.80
2017-08-22T16:01:27.839Z,98532.23
2017-08-22T16:03:56.284Z,98525.76
2017-08-22T16:06:24.649Z,98525.94
2017-08-22T16:08:52.993Z,98514.47
2017-08-22T16:11:21.337Z,98516.17
2017-08-22T16:13:49.676Z,98510.47
2017-08-22T16:16:18.523Z,98517.33
2017-08-22T16:18:46.863Z,98514.45
2017-08-22T16:21:15.204Z,98517.81
2017-08-22T16:23:43.651Z,98519.31
2017-08-22T16:26:12.042Z,98512.00
2017-08-22T16:28:40.369Z,98516.75
2017-08-22T16:31:08.727Z,98515.34
2017-08-22T16:33:37.091Z,98515.11
2017-08-22T16:36:05.420Z,98515.57
2017-08-22T16:38:33.786Z,98508.48
2017-08-22T16:41:02.134Z,98505.95
2017-08-22T16:43:30.577Z,98502.34
2017-08-22T16:45:59.067Z,98511.20
2017-08-22T16:48:27.456Z,98506.64
2017-08-22T16:50:55.775Z,98500.09
2017-08-22T16:53:24.148Z,98500.63
2017-08-22T16:55:52.476Z,98500.06
2017-08-22T16:58:20.833Z,98502.47
2017-08-22T17:00:49.223Z,98504.45
2017-08-22T17:03:17.552Z,98507.61
2017-08-22T17:05:45.894Z,98508.82
2017-08-22T17:08:14.218Z,98511.25
2017-08-22T17:10:42.568Z,98509.36
2017-08-22T17:13:10.908Z,98508.06
2017-08-22T17:15:39.320Z,98508.02
2017-08-22T17:18:07.686Z,98510.13
2017-08-22T17:20:36.120Z,98499.91
2017-08-22T17:23:04.447Z,98509.47
2017-08-22T17:25:35.015Z,98506.70
2017-08-22T17:28:03.387Z,98509.83
2017-08-22T17:30:31.751Z,98511.66
2017-08-22T17:33:00.106Z,98513.91
2017-08-22T17:35:28.446Z,98515.03
2017-08-22T17:37:56.788Z,98514.74
2017-08-22T17:40:25.137Z,98514.03
2017-08-22T17:42:53.503Z,98509.33
2017-08-22T17:45:21.839Z,98511.20
2017-08-22T17:47:50.193Z,98506.92
2017-08-22T17:50:18.518Z,98511.23
2017-08-22T17:52:46.865Z,98511.88
2017-08-22T17:55:15.235Z,98515.87
2017-08-22T17:57:44.341Z,98509.95
2017-08-22T18:00:12.684Z,98505.95
2017-08-22T18:02:41.056Z,98505.60
2017-08-22T18:05:09.425Z,98501.91
2017-08-22T18:07:37.771Z,98501.25
2017-08-22T18:10:06.122Z,98500.13
2017-08-22T18:12:34.471Z,98504.43
2017-08-22T18:15:03.440Z,98504.11
2017-08-22T18:17:31.773Z,98511.09
2017-08-22T18:20:00.119Z,98519.43
2017-08-22T18:22:28.483Z,98514.92
2017-08-22T18:24:56.818Z,98516.66
2017-08-22T18:27:25.187Z,98521.27
2017-08-22T18:29:53.527Z,98522.75
2017-08-22T18:32:21.870Z,98526.53
2017-08-22T18:34:50.197Z,98524.40
2017-08-22T18:37:18.561Z,98522.69
2017-08-22T18:39:46.906Z,98518.81
2017-08-22T18:42:15.234Z,98515.33
2017-08-22T18:44:43.609Z,98520.52
2017-08-22T18:47:11.987Z,98520.25
2017-08-22T18:49:40.356Z,98532.61
2017-08-22T18:52:08.696Z,98530.78
2017-08-22T18:54:37.412Z,98528.19
2017-08-22T18:57:05.749Z,98532.06
2017-08-22T18:59:34.454Z,98533.72
2017-08-22T19:02:02.798Z,98526.14
2017-08-22T19:04:31.132Z,98522.67
2017-08-22T19:06:59.519Z,98526.21
2017-08-22T19:09:27.864Z,98529.20
2017-08-22T19:11:56.219Z,98530.13
2017-08-22T19:14:24.562Z,98525.13
2017-08-22T19:16:53.032Z,98524.16
2017-08-22T19:19:21.407Z,98512.99
2017-08-22T19:21:50.193Z,98517.34
2017-08-22T19:24:18.524Z,98519.27
2017-08-22T19:26:46.849Z,98519.88
2017-08-22T19:29:15.184Z,98527.81
2017-08-22T19:31:43.516Z,98544.30
2017-08-22T19:34:11.879Z,98549.75
2017-08-22T19:36:40.250Z,98549.55
2017-08-22T19:39:08.614Z,98548.49
2017-08-22T19:41:36.964Z,98542.01
2017-08-22T19:44:05.319Z,98520.41
2017-08-22T19:46:33.747Z,98528.47
2017-08-22T19:49:02.357Z,98528.61
2017-08-22T19:51:30.708Z,98535.31
2017-08-22T19:53:59.046Z,98539.95
2017-08-22T19:56:27.415Z,98543.36
2017-08-22T19:58:55.766Z,98536.84
2017-08-22T20:01:24.129Z,98535.80
2017-08-22T20:03:52.449Z,98530.75
2017-08-22T20:06:20.797Z,98530.11
2017-08-22T20:08:50.057Z,98540.92
2017-08-22T20:11:18.714Z,98546.14
2017-08-22T20:13:47.049Z,98551.23
2017-08-22T20:16:15.389Z,98551.92
2017-08-22T20:18:43.750Z,98544.61
2017-08-22T20:21:12.093Z,98550.38
2017-08-22T20:23:40.447Z,98558.86
2017-08-22T20:26:08.776Z,98563.52
2017-08-22T20:28:37.304Z,98558.77
2017-08-22T20:31:05.745Z,98555.08
2017-08-22T20:33:34.112Z,98560.23
2017-08-22T20:36:02.458Z,98562.98
2017-08-22T20:38:30.785Z,98559.39
2017-08-22T20:40:59.157Z,98561.66
2017-08-22T20:43:27.508Z,98554.62
2017-08-22T20:45:55.969Z,98546.83
2017-08-22T20:48:24.303Z,98547.88
2017-08-22T20:50:52.718Z,98547.61
2017-08-22T20:53:21.065Z,98541.97
2017-08-22T20:55:49.716Z,98545.87
2017-08-22T20:58:18.444Z,98548.07
2017-08-22T21:00:46.799Z,98554.63
2017-08-22T21:03:15.178Z,98540.17
2017-08-22T21:05:43.621Z,98540.89
2017-08-22T21:08:11.973Z,98539.66
2017-08-22T21:10:40.301Z,98538.92
2017-08-22T21:13:09.153Z,98536.62
2017-08-22T21:15:37.518Z,98528.27
2017-08-22T21:18:05.838Z,98526.25
2017-08-22T21:20:34.181Z,98522.88
2017-08-22T21:23:02.511Z,98511.45
2017-08-22T21:25:30.862Z,98502.39
2017-08-22T21:27:59.784Z,98498.76
2017-08-22T21:30:28.140Z,98497.77
2017-08-22T21:32:56.506Z,98501.58
2017-08-22T21:35:24.828Z,98494.64
2017-08-22T21:37:53.472Z,98497.67
2017-08-22T21:40:21.780Z,98492.47
2017-08-22T21:42:50.109Z,98491.16
2017-08-22T21:45:18.450Z,98500.16
2017-08-22T21:47:47.270Z,98502.35
2017-08-22T21:50:15.585Z,98512.70
2017-08-22T21:52:44.283Z,98515.25
2017-08-22T21:55:12.607Z,98520.26
2017-08-22T21:57:40.938Z,98521.12
2017-08-22T22:00:09.286Z,98521.89
2017-08-22T22:02:37.621Z,98515.23
2017-08-22T22:05:05.970Z,98519.69
2017-08-22T22:07:34.316Z,98519.28
2017-08-22T22:10:02.661Z,98520.58
2017-08-22T22:12:31.022Z,98519.05
2017-08-22T22:14:59.451Z,98519.07
2017-08-22T22:17:27.813Z,98508.75
2017-08-22T22:19:56.195Z,98508.34
2017-08-22T22:22:24.548Z,98500.27
2017-08-22T22:24:52.890Z,98498.07
2017-08-22T22:27:21.240Z,98489.08
2017-08-22T22:29:49.579Z,98496.30
2017-08-22T22:32:17.915Z,98495.20
2017-08-22T22:34:46.231Z,98496.78
2017-08-22T22:37:14.569Z,98500.58
2017-08-22T22:39:42.893Z,98501.41
2017-08-22T22:42:11.494Z,98500.85
2017-08-22T22:44:39.841Z,98508.13
2017-08-22T22:47:08.186Z,98510.99
2017-08-22T22:49:36.523Z,98506.98
2017-08-22T22:52:04.847Z,98516.78
2017-08-22T22:54:33.951Z,98520.33
2017-08-22T22:57:02.262Z,98520.23
2017-08-22T22:59:30.649Z,98511.17
2017-08-22T23:01:58.985Z,98517.91
2017-08-22T23:04:27.329Z,98515.37
2017-08-22T23:06:55.656Z,98517.34
2017-08-22T23:09:24.147Z,98520.01
2017-08-22T23:11:52.513Z,98528.02
2017-08-22T23:14:20.861Z,98524.88
2017-08-22T23:16:49.679Z,98528.91
2017-08-22T23:19:18.009Z,98530.95
2017-08-22T23:21:46.340Z,98532.36
2017-08-22T23:24:14.688Z,98529.20
2017-08-22T23:26:43.033Z,98529.94
2017-08-22T23:29:11.474Z,98529.73
2017-08-22T23:31:39.826Z,98527.61
2017-08-22T23:34:08.141Z,98520.82
2017-08-22T23:36:36.472Z,98520.80
2017-08-22T23:39:04.792Z,98519.29
2017-08-22T23:41:33.112Z,98517.36
2017-08-22T23:44:01.455Z,98518.39
2017-08-22T23:46:29.782Z,98519.89
2017-08-22T23:48:58.139Z,98520.61
2017-08-22T23:51:26.481Z,98517.16
2017-08-22T23:53:55.279Z,98507.26
2017-08-22T23:56:23.624Z,98505.74
2017-08-22T23:58:51.934Z,98507.34
